الصفحة الرئيسية
METAR-TAF:

METAR-TAF

مطار :

مطار تان سون نهات الدولي

هو تشي منه, فيتنام

دائرة عرض: 10-49N, خط طول: 106-40E, ارتفاع: 19 متر

مراقبة الطقس الحالي

تاريخ ووقت الإصدار 33 دقيقة قبل الساعة 00:30UTC
ريح 6 عقدة من الغرب/الجنوب الغربي, الاتجاه يتراوح بين الجنوب/الجنوب الغربي و الغرب
درجة الحرارة 28°درجة مئوية
الرطوبة 94%
ضغط 1008 hPa
الرؤية 10 كم أو أكثر
غيوم قليلة على ارتفاع 1700 قدم
غيوم متفرقة على ارتفاع 5000 قدم

METAR: VVTS 240030Z 24006KT 210V270 9999 FEW017 SCT050 28/27 Q1008 NOSIG

زمن: 08:03 (01:03 UTC)

توقعات

تاريخ ووقت الإصدار 2ساعات و 3 دقيقة قبل الساعة 23:00UTC
التوقعات صالحة من24 الساعة 00 UTC إلى 25 الساعة 06 UTC
ريح 6 عقدة من الغرب/الجنوب الغربي
الرؤية 10 كم أو أكثر
غيوم قليلة على ارتفاع 1700 قدم
غيوم متفرقة على ارتفاع 4000 قدم
مؤقت
من 24 الساعة 07 UTC إلى 24 الساعة 11 UTC
غيوم متفرقة على ارتفاع 1500 قدم
غيوم قليلة على ارتفاع 1700 قدم, مزنة ركامية.
عاصفة رعدية

TAF: VVTS 232300Z 2400/2506 25006KT 9999 FEW017 SCT040 TEMPO 2407/2411 TS SCT015 FEW017CB

أرصاد الطقس والتوقعات من أكثر من 4000 مطار (تقارير الطقس للمطار METAR والتنبؤ بالطقس بالمطارTAF).

المحطات المتاحة هي النقط الصفراء والحمراء على الخريطة.

حرك المؤشر فوق النقطة لمعرفة اسم المحطة.

ثم انقر لمعرفة أرصاد وتوقعات الطقس.

لتغيير الخارطة: اضغط على الأزرار الخضراء مع رمز الصليب الأسود للتكبير. على الزر الأخضر مع شرطة للتصغير، أو على الأسهم الخضراء للخرائط المجاورة.


METAR-TAF: